sensor_id;sensor_type;location;lat;lon;timestamp;P1;durP1;ratioP1;P2;durP2;ratioP2
3036;SDS011;1528;52.550;13.408;2023-02-15T00:01:10;35.07;;;32.00;;
3036;SDS011;1528;52.550;13.408;2023-02-15T00:03:56;34.47;;;31.60;;
3036;SDS011;1528;52.550;13.408;2023-02-15T00:06:43;34.73;;;31.70;;
3036;SDS011;1528;52.550;13.408;2023-02-15T00:09:28;37.03;;;33.93;;
3036;SDS011;1528;52.550;13.408;2023-02-15T00:12:14;38.57;;;34.87;;
3036;SDS011;1528;52.550;13.408;2023-02-15T00:15:00;37.37;;;34.17;;
3036;SDS011;1528;52.550;13.408;2023-02-15T00:17:46;36.87;;;33.50;;
3036;SDS011;1528;52.550;13.408;2023-02-15T00:20:31;37.73;;;34.53;;
3036;SDS011;1528;52.550;13.408;2023-02-15T00:23:18;38.83;;;35.50;;
3036;SDS011;1528;52.550;13.408;2023-02-15T00:26:05;40.37;;;36.70;;
3036;SDS011;1528;52.550;13.408;2023-02-15T00:28:51;37.80;;;34.57;;
3036;SDS011;1528;52.550;13.408;2023-02-15T00:31:38;41.00;;;37.17;;
3036;SDS011;1528;52.550;13.408;2023-02-15T00:34:24;37.33;;;34.07;;
3036;SDS011;1528;52.550;13.408;2023-02-15T00:37:10;39.10;;;35.80;;
3036;SDS011;1528;52.550;13.408;2023-02-15T00:39:57;39.90;;;36.53;;
3036;SDS011;1528;52.550;13.408;2023-02-15T00:42:43;40.00;;;36.50;;
3036;SDS011;1528;52.550;13.408;2023-02-15T00:45:28;40.93;;;37.43;;
3036;SDS011;1528;52.550;13.408;2023-02-15T00:48:14;36.70;;;33.50;;
3036;SDS011;1528;52.550;13.408;2023-02-15T00:51:00;39.93;;;36.47;;
3036;SDS011;1528;52.550;13.408;2023-02-15T00:53:46;42.20;;;38.50;;
3036;SDS011;1528;52.550;13.408;2023-02-15T00:59:20;37.83;;;34.73;;
3036;SDS011;1528;52.550;13.408;2023-02-15T01:02:05;40.77;;;37.10;;
3036;SDS011;1528;52.550;13.408;2023-02-15T01:04:51;40.60;;;37.30;;
3036;SDS011;1528;52.550;13.408;2023-02-15T01:07:36;42.47;;;38.83;;
3036;SDS011;1528;52.550;13.408;2023-02-15T01:10:22;40.47;;;37.17;;
3036;SDS011;1528;52.550;13.408;2023-02-15T01:13:09;40.00;;;36.50;;
3036;SDS011;1528;52.550;13.408;2023-02-15T01:15:55;40.10;;;36.47;;
3036;SDS011;1528;52.550;13.408;2023-02-15T01:18:40;38.17;;;34.67;;
3036;SDS011;1528;52.550;13.408;2023-02-15T01:21:26;41.30;;;37.80;;
3036;SDS011;1528;52.550;13.408;2023-02-15T01:24:12;41.70;;;38.00;;
3036;SDS011;1528;52.550;13.408;2023-02-15T01:26:58;42.80;;;39.23;;
3036;SDS011;1528;52.550;13.408;2023-02-15T01:29:45;44.27;;;40.33;;
3036;SDS011;1528;52.550;13.408;2023-02-15T01:32:32;38.87;;;35.40;;
3036;SDS011;1528;52.550;13.408;2023-02-15T01:35:17;42.33;;;38.43;;
3036;SDS011;1528;52.550;13.408;2023-02-15T01:38:03;39.77;;;36.40;;
3036;SDS011;1528;52.550;13.408;2023-02-15T01:40:50;39.83;;;36.10;;
3036;SDS011;1528;52.550;13.408;2023-02-15T01:43:39;43.97;;;40.10;;
3036;SDS011;1528;52.550;13.408;2023-02-15T01:46:28;41.10;;;37.50;;
3036;SDS011;1528;52.550;13.408;2023-02-15T01:49:19;39.60;;;36.17;;
3036;SDS011;1528;52.550;13.408;2023-02-15T01:52:07;41.93;;;38.33;;
3036;SDS011;1528;52.550;13.408;2023-02-15T01:54:55;39.23;;;35.70;;
3036;SDS011;1528;52.550;13.408;2023-02-15T01:57:41;40.87;;;37.53;;
3036;SDS011;1528;52.550;13.408;2023-02-15T02:00:28;41.77;;;37.77;;
3036;SDS011;1528;52.550;13.408;2023-02-15T02:03:19;40.67;;;37.13;;
3036;SDS011;1528;52.550;13.408;2023-02-15T02:06:15;43.07;;;39.47;;
3036;SDS011;1528;52.550;13.408;2023-02-15T02:09:00;43.20;;;39.47;;
3036;SDS011;1528;52.550;13.408;2023-02-15T02:11:47;45.30;;;41.27;;
3036;SDS011;1528;52.550;13.408;2023-02-15T02:14:33;43.87;;;40.17;;
3036;SDS011;1528;52.550;13.408;2023-02-15T02:17:21;40.27;;;36.57;;
3036;SDS011;1528;52.550;13.408;2023-02-15T02:20:27;38.70;;;35.37;;
3036;SDS011;1528;52.550;13.408;2023-02-15T02:23:24;38.17;;;34.73;;
3036;SDS011;1528;52.550;13.408;2023-02-15T02:36:24;40.30;;;36.67;;
3036;SDS011;1528;52.550;13.408;2023-02-15T02:39:21;40.10;;;36.40;;
3036;SDS011;1528;52.550;13.408;2023-02-15T02:42:11;43.07;;;38.87;;
3036;SDS011;1528;52.550;13.408;2023-02-15T02:45:03;40.30;;;36.50;;
3036;SDS011;1528;52.550;13.408;2023-02-15T02:47:53;44.27;;;39.87;;
3036;SDS011;1528;52.550;13.408;2023-02-15T02:50:43;42.53;;;38.43;;
3036;SDS011;1528;52.550;13.408;2023-02-15T02:53:29;44.50;;;40.20;;
3036;SDS011;1528;52.550;13.408;2023-02-15T02:56:18;45.20;;;40.80;;
3036;SDS011;1528;52.550;13.408;2023-02-15T02:59:08;43.67;;;39.77;;
3036;SDS011;1528;52.550;13.408;2023-02-15T03:01:58;47.57;;;43.53;;
3036;SDS011;1528;52.550;13.408;2023-02-15T03:04:49;45.73;;;41.63;;
3036;SDS011;1528;52.550;13.408;2023-02-15T03:07:48;46.13;;;41.80;;
3036;SDS011;1528;52.550;13.408;2023-02-15T03:10:36;43.87;;;39.60;;
3036;SDS011;1528;52.550;13.408;2023-02-15T03:13:23;44.80;;;40.70;;
3036;SDS011;1528;52.550;13.408;2023-02-15T03:16:09;46.70;;;42.40;;
3036;SDS011;1528;52.550;13.408;2023-02-15T03:19:12;45.37;;;41.17;;
3036;SDS011;1528;52.550;13.408;2023-02-15T03:22:03;44.90;;;40.37;;
3036;SDS011;1528;52.550;13.408;2023-02-15T03:24:55;49.60;;;45.07;;
3036;SDS011;1528;52.550;13.408;2023-02-15T03:27:45;47.40;;;42.50;;
3036;SDS011;1528;52.550;13.408;2023-02-15T03:30:33;49.30;;;44.67;;
3036;SDS011;1528;52.550;13.408;2023-02-15T03:33:21;46.03;;;41.47;;
3036;SDS011;1528;52.550;13.408;2023-02-15T03:36:08;48.27;;;43.47;;
3036;SDS011;1528;52.550;13.408;2023-02-15T03:39:05;48.63;;;43.70;;
3036;SDS011;1528;52.550;13.408;2023-02-15T03:41:58;46.47;;;41.57;;
3036;SDS011;1528;52.550;13.408;2023-02-15T03:44:50;48.37;;;43.40;;
3036;SDS011;1528;52.550;13.408;2023-02-15T03:47:42;48.83;;;43.80;;
3036;SDS011;1528;52.550;13.408;2023-02-15T03:50:31;51.73;;;45.57;;
3036;SDS011;1528;52.550;13.408;2023-02-15T03:53:38;50.83;;;45.33;;
3036;SDS011;1528;52.550;13.408;2023-02-15T03:56:24;49.53;;;44.43;;
3036;SDS011;1528;52.550;13.408;2023-02-15T03:59:12;49.03;;;43.93;;
3036;SDS011;1528;52.550;13.408;2023-02-15T04:02:17;54.60;;;46.90;;
3036;SDS011;1528;52.550;13.408;2023-02-15T04:05:06;54.83;;;47.43;;
3036;SDS011;1528;52.550;13.408;2023-02-15T04:07:52;53.07;;;47.47;;
3036;SDS011;1528;52.550;13.408;2023-02-15T04:10:37;54.43;;;47.83;;
3036;SDS011;1528;52.550;13.408;2023-02-15T04:13:42;54.20;;;48.40;;
3036;SDS011;1528;52.550;13.408;2023-02-15T04:16:29;54.90;;;49.20;;
3036;SDS011;1528;52.550;13.408;2023-02-15T04:19:14;56.47;;;50.27;;
3036;SDS011;1528;52.550;13.408;2023-02-15T04:22:17;53.23;;;47.77;;
3036;SDS011;1528;52.550;13.408;2023-02-15T04:25:20;52.73;;;47.03;;
3036;SDS011;1528;52.550;13.408;2023-02-15T04:28:06;57.23;;;51.50;;
3036;SDS011;1528;52.550;13.408;2023-02-15T04:30:51;51.57;;;46.20;;
3036;SDS011;1528;52.550;13.408;2023-02-15T04:33:38;51.73;;;46.33;;
3036;SDS011;1528;52.550;13.408;2023-02-15T04:36:23;53.10;;;47.70;;
3036;SDS011;1528;52.550;13.408;2023-02-15T04:39:11;53.27;;;47.60;;
3036;SDS011;1528;52.550;13.408;2023-02-15T04:41:58;53.83;;;48.37;;
3036;SDS011;1528;52.550;13.408;2023-02-15T04:44:43;51.47;;;46.23;;
3036;SDS011;1528;52.550;13.408;2023-02-15T04:47:29;53.33;;;48.10;;
3036;SDS011;1528;52.550;13.408;2023-02-15T04:50:16;52.83;;;47.60;;
3036;SDS011;1528;52.550;13.408;2023-02-15T04:53:02;51.90;;;46.63;;
3036;SDS011;1528;52.550;13.408;2023-02-15T04:55:48;51.37;;;46.17;;
3036;SDS011;1528;52.550;13.408;2023-02-15T04:58:33;53.20;;;47.57;;
3036;SDS011;1528;52.550;13.408;2023-02-15T05:01:21;48.27;;;43.00;;
3036;SDS011;1528;52.550;13.408;2023-02-15T05:04:07;52.97;;;47.60;;
3036;SDS011;1528;52.550;13.408;2023-02-15T05:06:54;48.90;;;44.10;;
3036;SDS011;1528;52.550;13.408;2023-02-15T05:09:39;50.73;;;45.53;;
3036;SDS011;1528;52.550;13.408;2023-02-15T05:12:25;48.97;;;44.07;;
3036;SDS011;1528;52.550;13.408;2023-02-15T05:15:11;49.43;;;44.20;;
3036;SDS011;1528;52.550;13.408;2023-02-15T05:17:56;51.80;;;46.67;;
3036;SDS011;1528;52.550;13.408;2023-02-15T05:20:45;48.13;;;43.23;;
3036;SDS011;1528;52.550;13.408;2023-02-15T05:23:32;50.23;;;45.20;;
3036;SDS011;1528;52.550;13.408;2023-02-15T05:26:18;51.17;;;45.87;;
3036;SDS011;1528;52.550;13.408;2023-02-15T05:29:37;48.20;;;43.40;;
3036;SDS011;1528;52.550;13.408;2023-02-15T05:32:22;49.67;;;44.57;;
3036;SDS011;1528;52.550;13.408;2023-02-15T05:35:11;49.70;;;44.33;;
3036;SDS011;1528;52.550;13.408;2023-02-15T05:37:58;47.97;;;43.03;;
3036;SDS011;1528;52.550;13.408;2023-02-15T05:40:45;52.53;;;47.20;;
3036;SDS011;1528;52.550;13.408;2023-02-15T05:43:30;50.00;;;44.60;;
3036;SDS011;1528;52.550;13.408;2023-02-15T05:46:16;48.30;;;43.50;;
3036;SDS011;1528;52.550;13.408;2023-02-15T05:49:02;50.13;;;44.93;;
3036;SDS011;1528;52.550;13.408;2023-02-15T05:51:48;49.10;;;44.10;;
3036;SDS011;1528;52.550;13.408;2023-02-15T05:54:33;50.73;;;44.63;;
3036;SDS011;1528;52.550;13.408;2023-02-15T05:57:20;52.10;;;46.57;;
3036;SDS011;1528;52.550;13.408;2023-02-15T06:00:06;50.00;;;44.87;;
3036;SDS011;1528;52.550;13.408;2023-02-15T06:02:53;53.13;;;47.33;;
3036;SDS011;1528;52.550;13.408;2023-02-15T06:05:39;49.73;;;44.50;;
3036;SDS011;1528;52.550;13.408;2023-02-15T06:08:24;51.30;;;46.07;;
3036;SDS011;1528;52.550;13.408;2023-02-15T06:11:10;49.73;;;44.47;;
3036;SDS011;1528;52.550;13.408;2023-02-15T06:13:57;54.30;;;48.50;;
3036;SDS011;1528;52.550;13.408;2023-02-15T06:16:42;53.20;;;47.90;;
3036;SDS011;1528;52.550;13.408;2023-02-15T06:19:28;53.23;;;47.47;;
3036;SDS011;1528;52.550;13.408;2023-02-15T06:22:14;55.63;;;49.70;;
3036;SDS011;1528;52.550;13.408;2023-02-15T06:24:59;53.97;;;48.10;;
3036;SDS011;1528;52.550;13.408;2023-02-15T06:27:45;59.00;;;52.70;;
3036;SDS011;1528;52.550;13.408;2023-02-15T06:30:33;57.27;;;51.23;;
3036;SDS011;1528;52.550;13.408;2023-02-15T06:33:18;58.33;;;52.10;;
3036;SDS011;1528;52.550;13.408;2023-02-15T06:36:04;58.87;;;52.47;;
3036;SDS011;1528;52.550;13.408;2023-02-15T06:38:49;57.83;;;50.43;;
3036;SDS011;1528;52.550;13.408;2023-02-15T06:41:35;56.80;;;50.97;;
3036;SDS011;1528;52.550;13.408;2023-02-15T06:44:21;56.23;;;50.70;;
3036;SDS011;1528;52.550;13.408;2023-02-15T06:47:08;60.07;;;53.23;;
3036;SDS011;1528;52.550;13.408;2023-02-15T06:49:54;54.90;;;49.20;;
3036;SDS011;1528;52.550;13.408;2023-02-15T06:52:41;55.37;;;49.97;;
3036;SDS011;1528;52.550;13.408;2023-02-15T06:55:29;54.20;;;48.33;;
3036;SDS011;1528;52.550;13.408;2023-02-15T06:58:14;56.50;;;50.60;;
3036;SDS011;1528;52.550;13.408;2023-02-15T07:01:00;52.87;;;47.10;;
3036;SDS011;1528;52.550;13.408;2023-02-15T07:03:47;54.97;;;49.43;;
3036;SDS011;1528;52.550;13.408;2023-02-15T07:06:33;59.53;;;53.20;;
3036;SDS011;1528;52.550;13.408;2023-02-15T07:09:19;57.13;;;51.33;;
3036;SDS011;1528;52.550;13.408;2023-02-15T07:12:05;57.13;;;51.13;;
3036;SDS011;1528;52.550;13.408;2023-02-15T07:15:09;56.83;;;50.63;;
3036;SDS011;1528;52.550;13.408;2023-02-15T07:17:56;58.73;;;47.67;;
3036;SDS011;1528;52.550;13.408;2023-02-15T07:20:44;58.93;;;52.90;;
3036;SDS011;1528;52.550;13.408;2023-02-15T07:23:29;63.57;;;56.50;;
3036;SDS011;1528;52.550;13.408;2023-02-15T07:26:15;57.67;;;51.47;;
3036;SDS011;1528;52.550;13.408;2023-02-15T07:29:01;57.60;;;51.30;;
3036;SDS011;1528;52.550;13.408;2023-02-15T07:31:46;60.03;;;53.50;;
3036;SDS011;1528;52.550;13.408;2023-02-15T07:34:32;55.20;;;49.23;;
3036;SDS011;1528;52.550;13.408;2023-02-15T07:37:19;56.27;;;50.63;;
3036;SDS011;1528;52.550;13.408;2023-02-15T07:40:05;63.20;;;50.97;;
3036;SDS011;1528;52.550;13.408;2023-02-15T07:42:51;59.40;;;49.67;;
3036;SDS011;1528;52.550;13.408;2023-02-15T07:45:38;58.13;;;49.03;;
3036;SDS011;1528;52.550;13.408;2023-02-15T07:48:24;55.03;;;49.13;;
3036;SDS011;1528;52.550;13.408;2023-02-15T07:51:10;54.13;;;47.57;;
3036;SDS011;1528;52.550;13.408;2023-02-15T07:53:57;60.23;;;48.80;;
3036;SDS011;1528;52.550;13.408;2023-02-15T07:56:43;63.60;;;49.50;;
3036;SDS011;1528;52.550;13.408;2023-02-15T07:59:28;56.20;;;47.60;;
3036;SDS011;1528;52.550;13.408;2023-02-15T08:02:14;57.40;;;51.07;;
3036;SDS011;1528;52.550;13.408;2023-02-15T08:05:00;51.57;;;45.77;;
3036;SDS011;1528;52.550;13.408;2023-02-15T08:07:45;53.87;;;46.60;;
3036;SDS011;1528;52.550;13.408;2023-02-15T08:10:32;65.53;;;49.70;;
3036;SDS011;1528;52.550;13.408;2023-02-15T08:13:36;57.47;;;48.80;;
3036;SDS011;1528;52.550;13.408;2023-02-15T08:16:37;55.53;;;48.93;;
3036;SDS011;1528;52.550;13.408;2023-02-15T08:19:25;53.97;;;46.33;;
3036;SDS011;1528;52.550;13.408;2023-02-15T08:22:12;57.97;;;50.23;;
3036;SDS011;1528;52.550;13.408;2023-02-15T08:24:59;52.03;;;46.60;;
3036;SDS011;1528;52.550;13.408;2023-02-15T08:27:46;61.47;;;51.07;;
3036;SDS011;1528;52.550;13.408;2023-02-15T08:30:31;64.13;;;48.33;;
3036;SDS011;1528;52.550;13.408;2023-02-15T08:33:17;54.40;;;48.70;;
3036;SDS011;1528;52.550;13.408;2023-02-15T08:36:03;60.80;;;51.37;;
3036;SDS011;1528;52.550;13.408;2023-02-15T08:38:49;58.10;;;51.33;;
3036;SDS011;1528;52.550;13.408;2023-02-15T08:41:36;62.17;;;52.80;;
3036;SDS011;1528;52.550;13.408;2023-02-15T08:44:25;56.00;;;49.90;;
3036;SDS011;1528;52.550;13.408;2023-02-15T08:47:11;63.77;;;49.70;;
3036;SDS011;1528;52.550;13.408;2023-02-15T08:49:57;58.47;;;51.73;;
3036;SDS011;1528;52.550;13.408;2023-02-15T08:52:42;57.27;;;50.80;;
3036;SDS011;1528;52.550;13.408;2023-02-15T08:55:28;61.20;;;49.73;;
3036;SDS011;1528;52.550;13.408;2023-02-15T08:58:14;55.53;;;49.63;;
3036;SDS011;1528;52.550;13.408;2023-02-15T09:01:02;57.37;;;51.17;;
3036;SDS011;1528;52.550;13.408;2023-02-15T09:03:55;58.03;;;51.73;;
3036;SDS011;1528;52.550;13.408;2023-02-15T09:06:42;60.30;;;54.03;;
3036;SDS011;1528;52.550;13.408;2023-02-15T09:09:28;57.67;;;51.47;;
3036;SDS011;1528;52.550;13.408;2023-02-15T09:12:14;58.47;;;52.57;;
3036;SDS011;1528;52.550;13.408;2023-02-15T09:15:00;60.20;;;52.43;;
3036;SDS011;1528;52.550;13.408;2023-02-15T09:17:47;60.70;;;54.33;;
3036;SDS011;1528;52.550;13.408;2023-02-15T09:20:35;57.50;;;51.33;;
3036;SDS011;1528;52.550;13.408;2023-02-15T09:23:20;60.07;;;50.87;;
3036;SDS011;1528;52.550;13.408;2023-02-15T09:26:07;55.97;;;50.37;;
3036;SDS011;1528;52.550;13.408;2023-02-15T09:28:54;55.40;;;49.33;;
3036;SDS011;1528;52.550;13.408;2023-02-15T09:31:42;52.83;;;47.30;;
3036;SDS011;1528;52.550;13.408;2023-02-15T09:34:30;54.50;;;49.03;;
3036;SDS011;1528;52.550;13.408;2023-02-15T09:37:15;54.83;;;49.67;;
3036;SDS011;1528;52.550;13.408;2023-02-15T09:40:01;49.03;;;44.03;;
3036;SDS011;1528;52.550;13.408;2023-02-15T09:42:51;50.03;;;45.43;;
3036;SDS011;1528;52.550;13.408;2023-02-15T09:46:08;45.70;;;41.33;;
3036;SDS011;1528;52.550;13.408;2023-02-15T09:49:07;45.90;;;41.67;;
3036;SDS011;1528;52.550;13.408;2023-02-15T09:55:21;44.03;;;39.80;;
3036;SDS011;1528;52.550;13.408;2023-02-15T09:58:19;45.73;;;41.73;;
3036;SDS011;1528;52.550;13.408;2023-02-15T10:01:13;42.73;;;38.87;;
3036;SDS011;1528;52.550;13.408;2023-02-15T10:04:08;45.63;;;41.13;;
3036;SDS011;1528;52.550;13.408;2023-02-15T10:07:22;48.63;;;43.90;;
3036;SDS011;1528;52.550;13.408;2023-02-15T10:10:23;42.13;;;38.53;;
3036;SDS011;1528;52.550;13.408;2023-02-15T10:13:20;44.47;;;40.37;;
3036;SDS011;1528;52.550;13.408;2023-02-15T10:16:16;44.23;;;40.53;;
3036;SDS011;1528;52.550;13.408;2023-02-15T10:19:10;42.87;;;39.20;;
3036;SDS011;1528;52.550;13.408;2023-02-15T10:22:04;42.10;;;38.50;;
3036;SDS011;1528;52.550;13.408;2023-02-15T10:28:17;38.97;;;35.70;;
3036;SDS011;1528;52.550;13.408;2023-02-15T10:31:07;42.30;;;38.90;;
3036;SDS011;1528;52.550;13.408;2023-02-15T10:34:05;43.67;;;39.80;;
3036;SDS011;1528;52.550;13.408;2023-02-15T10:37:17;42.77;;;38.90;;
3036;SDS011;1528;52.550;13.408;2023-02-15T10:40:15;37.93;;;34.53;;
3036;SDS011;1528;52.550;13.408;2023-02-15T10:46:26;42.30;;;38.83;;
3036;SDS011;1528;52.550;13.408;2023-02-15T10:49:38;37.13;;;33.93;;
3036;SDS011;1528;52.550;13.408;2023-02-15T10:52:39;42.47;;;38.97;;
3036;SDS011;1528;52.550;13.408;2023-02-15T10:55:41;41.87;;;38.17;;
3036;SDS011;1528;52.550;13.408;2023-02-15T10:58:38;39.63;;;36.10;;
3036;SDS011;1528;52.550;13.408;2023-02-15T11:01:45;39.97;;;36.63;;
3036;SDS011;1528;52.550;13.408;2023-02-15T11:04:39;39.57;;;36.13;;
3036;SDS011;1528;52.550;13.408;2023-02-15T11:07:38;43.77;;;39.90;;
3036;SDS011;1528;52.550;13.408;2023-02-15T11:10:28;42.03;;;38.43;;
3036;SDS011;1528;52.550;13.408;2023-02-15T11:13:18;42.07;;;38.43;;
3036;SDS011;1528;52.550;13.408;2023-02-15T11:16:08;40.53;;;36.43;;
3036;SDS011;1528;52.550;13.408;2023-02-15T11:18:59;41.70;;;38.30;;
3036;SDS011;1528;52.550;13.408;2023-02-15T11:21:50;44.87;;;41.17;;
3036;SDS011;1528;52.550;13.408;2023-02-15T11:24:42;42.17;;;38.57;;
3036;SDS011;1528;52.550;13.408;2023-02-15T11:27:30;42.30;;;38.80;;
3036;SDS011;1528;52.550;13.408;2023-02-15T11:30:19;37.67;;;34.67;;
3036;SDS011;1528;52.550;13.408;2023-02-15T11:33:12;41.07;;;37.77;;
3036;SDS011;1528;52.550;13.408;2023-02-15T11:36:03;40.90;;;37.50;;
3036;SDS011;1528;52.550;13.408;2023-02-15T11:38:56;40.47;;;36.83;;
3036;SDS011;1528;52.550;13.408;2023-02-15T11:41:47;38.37;;;35.10;;
3036;SDS011;1528;52.550;13.408;2023-02-15T11:44:39;40.40;;;37.10;;
3036;SDS011;1528;52.550;13.408;2023-02-15T11:47:31;37.63;;;34.43;;
3036;SDS011;1528;52.550;13.408;2023-02-15T11:50:19;37.77;;;34.37;;
3036;SDS011;1528;52.550;13.408;2023-02-15T11:53:09;36.83;;;33.73;;
3036;SDS011;1528;52.550;13.408;2023-02-15T11:55:57;36.60;;;33.50;;
3036;SDS011;1528;52.550;13.408;2023-02-15T11:58:44;35.33;;;32.33;;
3036;SDS011;1528;52.550;13.408;2023-02-15T12:01:35;38.23;;;35.00;;
3036;SDS011;1528;52.550;13.408;2023-02-15T12:04:25;36.90;;;33.60;;
3036;SDS011;1528;52.550;13.408;2023-02-15T12:07:20;38.63;;;35.43;;
3036;SDS011;1528;52.550;13.408;2023-02-15T12:10:15;35.70;;;32.50;;
3036;SDS011;1528;52.550;13.408;2023-02-15T12:13:11;38.50;;;35.30;;
3036;SDS011;1528;52.550;13.408;2023-02-15T12:15:58;40.70;;;37.30;;
3036;SDS011;1528;52.550;13.408;2023-02-15T12:18:52;40.17;;;36.60;;
3036;SDS011;1528;52.550;13.408;2023-02-15T12:21:40;39.40;;;36.00;;
3036;SDS011;1528;52.550;13.408;2023-02-15T12:24:30;36.60;;;33.43;;
3036;SDS011;1528;52.550;13.408;2023-02-15T12:27:18;38.73;;;35.27;;
3036;SDS011;1528;52.550;13.408;2023-02-15T12:30:06;38.97;;;35.67;;
3036;SDS011;1528;52.550;13.408;2023-02-15T12:33:04;33.03;;;29.97;;
3036;SDS011;1528;52.550;13.408;2023-02-15T12:36:00;38.67;;;35.47;;
3036;SDS011;1528;52.550;13.408;2023-02-15T12:39:05;37.80;;;34.57;;
3036;SDS011;1528;52.550;13.408;2023-02-15T12:42:13;39.67;;;36.70;;
3036;SDS011;1528;52.550;13.408;2023-02-15T12:45:03;37.40;;;34.37;;
3036;SDS011;1528;52.550;13.408;2023-02-15T12:51:13;36.37;;;33.27;;
3036;SDS011;1528;52.550;13.408;2023-02-15T12:54:00;36.43;;;33.43;;
3036;SDS011;1528;52.550;13.408;2023-02-15T12:57:12;37.60;;;34.37;;
3036;SDS011;1528;52.550;13.408;2023-02-15T13:00:24;34.60;;;31.90;;
3036;SDS011;1528;52.550;13.408;2023-02-15T13:03:15;36.33;;;33.13;;
3036;SDS011;1528;52.550;13.408;2023-02-15T13:06:03;34.03;;;31.23;;
3036;SDS011;1528;52.550;13.408;2023-02-15T13:08:51;34.77;;;31.80;;
3036;SDS011;1528;52.550;13.408;2023-02-15T13:11:39;33.07;;;30.37;;
3036;SDS011;1528;52.550;13.408;2023-02-15T13:14:31;34.17;;;31.40;;
3036;SDS011;1528;52.550;13.408;2023-02-15T13:17:17;33.70;;;30.87;;
3036;SDS011;1528;52.550;13.408;2023-02-15T13:20:13;38.40;;;35.57;;
3036;SDS011;1528;52.550;13.408;2023-02-15T13:23:03;34.10;;;31.40;;
3036;SDS011;1528;52.550;13.408;2023-02-15T13:25:54;35.97;;;33.20;;
3036;SDS011;1528;52.550;13.408;2023-02-15T13:28:44;36.37;;;33.47;;
3036;SDS011;1528;52.550;13.408;2023-02-15T13:31:33;37.67;;;34.67;;
3036;SDS011;1528;52.550;13.408;2023-02-15T13:34:20;36.03;;;33.23;;
3036;SDS011;1528;52.550;13.408;2023-02-15T13:37:12;35.30;;;32.60;;
3036;SDS011;1528;52.550;13.408;2023-02-15T13:40:01;38.53;;;35.23;;
3036;SDS011;1528;52.550;13.408;2023-02-15T13:42:53;42.30;;;38.97;;
3036;SDS011;1528;52.550;13.408;2023-02-15T13:45:48;34.13;;;31.43;;
3036;SDS011;1528;52.550;13.408;2023-02-15T13:48:46;39.13;;;36.03;;
3036;SDS011;1528;52.550;13.408;2023-02-15T13:51:43;38.63;;;35.13;;
3036;SDS011;1528;52.550;13.408;2023-02-15T13:54:44;37.47;;;34.30;;
3036;SDS011;1528;52.550;13.408;2023-02-15T13:57:47;30.70;;;28.20;;
3036;SDS011;1528;52.550;13.408;2023-02-15T14:00:57;35.87;;;33.20;;
3036;SDS011;1528;52.550;13.408;2023-02-15T14:07:19;36.47;;;33.77;;
3036;SDS011;1528;52.550;13.408;2023-02-15T14:10:39;32.97;;;30.47;;
3036;SDS011;1528;52.550;13.408;2023-02-15T14:13:45;38.13;;;35.00;;
3036;SDS011;1528;52.550;13.408;2023-02-15T14:16:43;35.97;;;33.27;;
3036;SDS011;1528;52.550;13.408;2023-02-15T14:19:39;38.43;;;35.53;;
3036;SDS011;1528;52.550;13.408;2023-02-15T14:22:30;42.20;;;39.30;;
3036;SDS011;1528;52.550;13.408;2023-02-15T14:25:22;41.63;;;38.80;;
3036;SDS011;1528;52.550;13.408;2023-02-15T14:28:15;36.60;;;33.80;;
3036;SDS011;1528;52.550;13.408;2023-02-15T14:31:08;40.80;;;37.87;;
3036;SDS011;1528;52.550;13.408;2023-02-15T14:33:56;33.03;;;30.47;;
3036;SDS011;1528;52.550;13.408;2023-02-15T14:36:44;32.83;;;30.07;;
3036;SDS011;1528;52.550;13.408;2023-02-15T14:39:31;38.40;;;35.40;;
3036;SDS011;1528;52.550;13.408;2023-02-15T14:42:45;36.50;;;33.70;;
3036;SDS011;1528;52.550;13.408;2023-02-15T14:45:39;33.33;;;30.80;;
3036;SDS011;1528;52.550;13.408;2023-02-15T14:48:36;38.30;;;35.50;;
3036;SDS011;1528;52.550;13.408;2023-02-15T14:54:59;34.70;;;32.10;;
3036;SDS011;1528;52.550;13.408;2023-02-15T14:57:52;35.00;;;32.40;;
3036;SDS011;1528;52.550;13.408;2023-02-15T15:00:42;36.27;;;33.57;;
3036;SDS011;1528;52.550;13.408;2023-02-15T15:03:27;33.50;;;31.00;;
3036;SDS011;1528;52.550;13.408;2023-02-15T15:06:23;35.03;;;32.30;;
3036;SDS011;1528;52.550;13.408;2023-02-15T15:09:12;33.60;;;31.20;;
3036;SDS011;1528;52.550;13.408;2023-02-15T15:12:15;36.57;;;33.93;;
3036;SDS011;1528;52.550;13.408;2023-02-15T15:15:32;36.97;;;34.23;;
3036;SDS011;1528;52.550;13.408;2023-02-15T15:24:49;34.23;;;31.43;;
3036;SDS011;1528;52.550;13.408;2023-02-15T15:27:40;36.93;;;34.00;;
3036;SDS011;1528;52.550;13.408;2023-02-15T15:33:55;36.10;;;33.60;;
3036;SDS011;1528;52.550;13.408;2023-02-15T15:37:17;36.10;;;33.30;;
3036;SDS011;1528;52.550;13.408;2023-02-15T15:40:33;32.97;;;30.30;;
3036;SDS011;1528;52.550;13.408;2023-02-15T15:50:13;39.57;;;36.50;;
3036;SDS011;1528;52.550;13.408;2023-02-15T15:53:00;37.33;;;34.57;;
3036;SDS011;1528;52.550;13.408;2023-02-15T15:55:50;36.30;;;33.50;;
3036;SDS011;1528;52.550;13.408;2023-02-15T15:58:41;36.53;;;33.87;;
3036;SDS011;1528;52.550;13.408;2023-02-15T16:01:30;37.33;;;34.67;;
3036;SDS011;1528;52.550;13.408;2023-02-15T16:04:23;40.22;;;37.22;;
3036;SDS011;1528;52.550;13.408;2023-02-15T16:07:14;40.13;;;37.43;;
3036;SDS011;1528;52.550;13.408;2023-02-15T16:10:19;39.20;;;36.40;;
3036;SDS011;1528;52.550;13.408;2023-02-15T16:13:11;39.60;;;36.50;;
3036;SDS011;1528;52.550;13.408;2023-02-15T16:15:58;37.87;;;34.90;;
3036;SDS011;1528;52.550;13.408;2023-02-15T16:18:44;35.30;;;32.70;;
3036;SDS011;1528;52.550;13.408;2023-02-15T16:21:33;37.70;;;34.67;;
3036;SDS011;1528;52.550;13.408;2023-02-15T16:27:45;34.83;;;31.73;;
3036;SDS011;1528;52.550;13.408;2023-02-15T16:30:34;37.00;;;33.70;;
3036;SDS011;1528;52.550;13.408;2023-02-15T16:33:20;37.83;;;34.97;;
3036;SDS011;1528;52.550;13.408;2023-02-15T16:36:10;40.23;;;36.10;;
3036;SDS011;1528;52.550;13.408;2023-02-15T16:39:06;38.53;;;35.20;;
3036;SDS011;1528;52.550;13.408;2023-02-15T16:41:53;38.63;;;35.43;;
3036;SDS011;1528;52.550;13.408;2023-02-15T16:44:40;35.67;;;32.90;;
3036;SDS011;1528;52.550;13.408;2023-02-15T16:47:27;38.00;;;34.90;;
3036;SDS011;1528;52.550;13.408;2023-02-15T16:50:16;34.70;;;32.00;;
3036;SDS011;1528;52.550;13.408;2023-02-15T16:53:04;35.70;;;32.70;;
3036;SDS011;1528;52.550;13.408;2023-02-15T16:55:58;37.70;;;34.63;;
3036;SDS011;1528;52.550;13.408;2023-02-15T16:58:45;36.03;;;33.23;;
3036;SDS011;1528;52.550;13.408;2023-02-15T17:01:35;35.67;;;32.70;;
3036;SDS011;1528;52.550;13.408;2023-02-15T17:04:26;39.10;;;35.90;;
3036;SDS011;1528;52.550;13.408;2023-02-15T17:07:15;36.60;;;33.70;;
3036;SDS011;1528;52.550;13.408;2023-02-15T17:10:02;37.83;;;34.63;;
3036;SDS011;1528;52.550;13.408;2023-02-15T17:12:52;34.80;;;31.60;;
3036;SDS011;1528;52.550;13.408;2023-02-15T17:15:39;34.90;;;31.97;;
3036;SDS011;1528;52.550;13.408;2023-02-15T17:18:26;35.93;;;32.90;;
3036;SDS011;1528;52.550;13.408;2023-02-15T17:21:16;38.73;;;35.33;;
3036;SDS011;1528;52.550;13.408;2023-02-15T17:24:04;37.93;;;34.73;;
3036;SDS011;1528;52.550;13.408;2023-02-15T17:26:50;38.27;;;35.47;;
3036;SDS011;1528;52.550;13.408;2023-02-15T17:29:44;38.60;;;35.27;;
3036;SDS011;1528;52.550;13.408;2023-02-15T17:32:32;38.37;;;35.37;;
3036;SDS011;1528;52.550;13.408;2023-02-15T17:35:20;42.60;;;39.37;;
3036;SDS011;1528;52.550;13.408;2023-02-15T17:38:17;34.27;;;31.37;;
3036;SDS011;1528;52.550;13.408;2023-02-15T17:41:03;36.17;;;33.13;;
3036;SDS011;1528;52.550;13.408;2023-02-15T17:43:48;37.27;;;33.83;;